Time;durP1;ratioP1;P1;durP2;ratioP2;P2;SDS_P1;SDS_P2;PMS_P1;PMS_P2;Temp;Humidity;BMP_temperature;BMP_pressure;BME280_temperature;BME280_humidity;BME280_pressure;Samples;Min_cycle;Max_cycle;Signal;HPM_P1;HPM_P2
2021/01/14 00:00:17;;;;;;;0.98;0.60;;;22.10;30.20;;;;;;4994120;28;20417;-48
2021/01/14 00:02:43;;;;;;;1.35;0.57;;;22.10;30.10;;;;;;4995236;28;20034;-47
2021/01/14 00:05:11;;;;;;;1.67;0.68;;;22.10;30.10;;;;;;4995340;28;20026;-45
2021/01/14 00:07:37;;;;;;;2.30;0.52;;;22.10;30.00;;;;;;4995256;28;20034;-45
2021/01/14 00:10:09;;;;;;;1.58;0.55;;;22.00;30.00;;;;;;4995103;28;20038;-41
2021/01/14 00:12:35;;;;;;;0.88;0.43;;;22.00;30.00;;;;;;4977064;28;20038;-44
2021/01/14 00:15:02;;;;;;;1.35;0.50;;;22.00;30.00;;;;;;4995387;28;20061;-42
2021/01/14 00:17:28;;;;;;;1.70;0.60;;;22.00;29.90;;;;;;4995218;28;20117;-43
2021/01/14 00:19:54;;;;;;;2.33;0.70;;;22.00;29.90;;;;;;4995216;28;20105;-42
2021/01/14 00:22:19;;;;;;;1.60;0.60;;;22.00;29.90;;;;;;4994679;28;20117;-46
2021/01/14 00:24:45;;;;;;;1.55;0.68;;;22.00;29.90;;;;;;4995396;28;20100;-42
2021/01/14 00:27:12;;;;;;;1.42;0.52;;;22.00;29.90;;;;;;4995515;28;20026;-44
2021/01/14 00:29:38;;;;;;;1.85;0.85;;;21.90;29.80;;;;;;4994434;28;20053;-48
2021/01/14 00:32:04;;;;;;;1.52;0.60;;;21.90;29.80;;;;;;4994542;28;20113;-45
2021/01/14 00:34:30;;;;;;;1.98;0.80;;;21.90;29.80;;;;;;4990962;28;20061;-43
2021/01/14 00:39:40;;;;;;;0.85;0.43;;;21.90;29.80;;;;;;4994656;28;20064;-45
2021/01/14 00:42:06;;;;;;;1.63;0.50;;;21.90;29.80;;;;;;4994485;28;20090;-47
2021/01/14 00:44:31;;;;;;;1.52;0.70;;;21.90;29.70;;;;;;4993268;28;20030;-46
2021/01/14 00:46:58;;;;;;;2.28;0.82;;;21.80;29.70;;;;;;4986009;28;20034;-44
2021/01/14 00:49:25;;;;;;;2.30;1.00;;;21.80;29.70;;;;;;4992626;28;20034;-45
2021/01/14 00:51:51;;;;;;;3.05;0.90;;;21.80;29.70;;;;;;4993372;28;20513;-47
2021/01/14 00:54:17;;;;;;;1.67;0.60;;;21.80;29.70;;;;;;4992512;28;20050;-42
2021/01/14 00:56:43;;;;;;;1.38;0.60;;;21.80;29.70;;;;;;4995063;28;20030;-44
2021/01/14 00:59:09;;;;;;;1.25;0.50;;;21.80;29.70;;;;;;4993751;28;20449;-46
2021/01/14 01:01:40;;;;;;;1.35;0.57;;;21.80;29.70;;;;;;4994357;28;20023;-44
2021/01/14 01:04:05;;;;;;;1.35;0.50;;;21.70;29.60;;;;;;4994458;28;20089;-43
2021/01/14 01:06:36;;;;;;;1.23;0.55;;;21.70;29.60;;;;;;4993562;28;20046;-44
2021/01/14 01:09:04;;;;;;;1.92;0.73;;;21.70;29.60;;;;;;4992693;28;20061;-42
2021/01/14 01:11:30;;;;;;;1.38;0.50;;;21.70;29.60;;;;;;4993898;28;20089;-42
2021/01/14 01:13:56;;;;;;;3.75;0.63;;;21.70;29.60;;;;;;4993259;28;20045;-46
2021/01/14 01:16:22;;;;;;;1.65;0.50;;;21.70;29.60;;;;;;4993346;28;20053;-44
2021/01/14 01:18:48;;;;;;;2.78;0.80;;;21.70;29.60;;;;;;4993544;28;20468;-44
2021/01/14 01:21:14;;;;;;;0.63;0.38;;;21.70;29.60;;;;;;4993275;28;20038;-45
2021/01/14 01:23:40;;;;;;;2.50;0.60;;;21.70;29.60;;;;;;4994113;28;20454;-43
2021/01/14 01:26:06;;;;;;;2.30;0.60;;;21.70;29.60;;;;;;4993383;28;20106;-45
2021/01/14 01:28:32;;;;;;;1.05;0.30;;;21.70;29.60;;;;;;4994200;28;20042;-42
2021/01/14 01:30:59;;;;;;;1.60;0.55;;;21.60;29.50;;;;;;4993108;28;20037;-43
2021/01/14 01:33:26;;;;;;;1.25;0.40;;;21.60;29.50;;;;;;4978618;28;20049;-45
2021/01/14 01:35:53;;;;;;;1.60;0.70;;;21.60;29.50;;;;;;4992574;28;20053;-42
2021/01/14 01:38:19;;;;;;;1.33;0.50;;;21.60;29.50;;;;;;4993019;28;20434;-43
2021/01/14 01:40:45;;;;;;;2.97;1.27;;;21.60;29.50;;;;;;4990724;28;20038;-44
2021/01/14 01:43:11;;;;;;;2.42;0.70;;;21.60;29.50;;;;;;4993412;28;20041;-43
2021/01/14 01:45:36;;;;;;;2.95;0.60;;;21.60;29.60;;;;;;4993478;28;20030;-44
2021/01/14 01:48:03;;;;;;;1.50;0.52;;;21.60;29.60;;;;;;4984224;28;20041;-44
2021/01/14 01:50:29;;;;;;;1.17;0.50;;;21.50;29.60;;;;;;4992920;28;20430;-45
2021/01/14 01:52:57;;;;;;;0.85;0.40;;;21.50;29.50;;;;;;4993683;28;20040;-43
2021/01/14 01:55:22;;;;;;;0.82;0.40;;;21.50;29.60;;;;;;4992612;28;20113;-46
2021/01/14 01:57:48;;;;;;;1.42;0.50;;;21.50;29.60;;;;;;4992535;28;20113;-44
2021/01/14 02:00:15;;;;;;;1.52;0.60;;;21.50;29.50;;;;;;4991877;28;20049;-44
2021/01/14 02:02:41;;;;;;;1.10;0.30;;;21.50;29.50;;;;;;4993770;28;20037;-46
2021/01/14 02:05:08;;;;;;;1.40;0.70;;;21.50;29.50;;;;;;4991462;28;20038;-44
2021/01/14 02:07:46;;;;;;;1.83;0.65;;;21.50;29.50;;;;;;4990927;28;20030;-44
2021/01/14 02:10:50;;;;;;;0.77;0.40;;;21.50;29.50;;;;;;4993358;28;20030;-43
2021/01/14 02:13:19;;;;;;;2.00;0.63;;;21.50;29.60;;;;;;4992861;28;20136;-43
2021/01/14 02:15:47;;;;;;;1.67;0.50;;;21.40;29.50;;;;;;4992526;28;20454;-43
2021/01/14 02:18:17;;;;;;;1.73;0.50;;;21.40;29.50;;;;;;4992808;28;20030;-44
2021/01/14 02:20:48;;;;;;;1.48;0.60;;;21.40;29.50;;;;;;4992399;28;20030;-44
2021/01/14 02:23:22;;;;;;;1.10;0.47;;;21.40;29.50;;;;;;4993303;28;20057;-45
2021/01/14 02:26:05;;;;;;;2.13;0.60;;;21.40;29.50;;;;;;4988081;28;20466;-44
2021/01/14 02:28:32;;;;;;;2.70;0.73;;;21.40;29.50;;;;;;4992461;28;20109;-43
2021/01/14 02:30:58;;;;;;;1.63;0.45;;;21.40;29.50;;;;;;4993381;28;20393;-46
2021/01/14 02:33:24;;;;;;;1.10;0.38;;;21.40;29.50;;;;;;4993637;28;20061;-47
2021/01/14 02:35:51;;;;;;;0.82;0.35;;;21.40;29.50;;;;;;4993088;28;20334;-44
2021/01/14 02:38:17;;;;;;;0.90;0.40;;;21.40;29.50;;;;;;4995470;28;20031;-44
2021/01/14 02:40:42;;;;;;;1.75;0.50;;;21.30;29.40;;;;;;4996877;28;20137;-42
2021/01/14 02:43:08;;;;;;;0.88;0.40;;;21.30;29.50;;;;;;4996826;28;20030;-43
2021/01/14 02:45:34;;;;;;;1.33;0.43;;;21.30;29.50;;;;;;4996831;28;20061;-44
2021/01/14 02:48:02;;;;;;;1.00;0.43;;;21.30;29.50;;;;;;4996555;28;20030;-44
2021/01/14 02:50:32;;;;;;;0.52;0.30;;;21.30;29.40;;;;;;4996592;28;20037;-44
2021/01/14 02:52:59;;;;;;;1.17;0.50;;;21.30;29.40;;;;;;4996872;28;20120;-44
2021/01/14 02:55:27;;;;;;;1.25;0.50;;;21.30;29.40;;;;;;4996615;28;20438;-43
2021/01/14 02:57:53;;;;;;;1.42;0.32;;;21.30;29.40;;;;;;4995569;28;20461;-45
2021/01/14 03:00:19;;;;;;;0.95;0.40;;;21.30;29.40;;;;;;4996279;28;20034;-46
2021/01/14 03:02:45;;;;;;;0.90;0.30;;;21.30;29.40;;;;;;4997288;28;20096;-43
2021/01/14 03:05:11;;;;;;;1.55;0.57;;;21.30;29.50;;;;;;4996444;28;20034;-45
2021/01/14 03:07:37;;;;;;;1.65;0.60;;;21.30;29.50;;;;;;4995496;28;20113;-44
2021/01/14 03:10:04;;;;;;;1.35;0.47;;;21.30;29.50;;;;;;4996500;28;20381;-44
2021/01/14 03:12:30;;;;;;;1.17;0.52;;;21.20;29.50;;;;;;4994526;28;20027;-45
2021/01/14 03:14:55;;;;;;;1.17;0.30;;;21.20;29.50;;;;;;4996054;28;20511;-43
2021/01/14 03:17:21;;;;;;;2.28;0.50;;;21.20;29.50;;;;;;4995418;28;20027;-45
2021/01/14 03:19:47;;;;;;;1.23;0.50;;;21.20;29.50;;;;;;4995483;28;20045;-45
2021/01/14 03:22:13;;;;;;;1.15;0.30;;;21.20;29.50;;;;;;4995778;28;20441;-45
2021/01/14 03:24:39;;;;;;;1.27;0.40;;;21.20;29.50;;;;;;4995950;28;20046;-44
2021/01/14 03:27:06;;;;;;;0.75;0.40;;;21.20;29.50;;;;;;4995882;28;20034;-46
2021/01/14 03:29:32;;;;;;;1.55;0.40;;;21.20;29.50;;;;;;4995654;28;20429;-44
2021/01/14 03:32:02;;;;;;;0.90;0.38;;;21.20;29.50;;;;;;4995717;28;20065;-47
2021/01/14 03:34:28;;;;;;;0.80;0.35;;;21.20;29.50;;;;;;4992841;28;20046;-42
2021/01/14 03:36:57;;;;;;;0.98;0.40;;;21.20;29.50;;;;;;4996491;28;20073;-44
2021/01/14 03:39:24;;;;;;;0.90;0.40;;;21.10;29.40;;;;;;4995214;28;20364;-43
2021/01/14 03:41:52;;;;;;;0.80;0.40;;;21.20;29.50;;;;;;4988795;28;20038;-46
2021/01/14 03:44:18;;;;;;;1.30;0.50;;;21.20;29.50;;;;;;4996255;28;20104;-44
2021/01/14 03:46:48;;;;;;;1.60;0.55;;;21.10;29.50;;;;;;4995521;28;20030;-42
2021/01/14 03:49:14;;;;;;;1.55;0.50;;;21.10;29.50;;;;;;4995807;28;20034;-43
2021/01/14 03:51:42;;;;;;;0.88;0.40;;;21.10;29.50;;;;;;4994796;28;20342;-45
2021/01/14 03:54:08;;;;;;;0.95;0.30;;;21.10;29.50;;;;;;4993819;28;20038;-43
2021/01/14 03:56:38;;;;;;;2.15;0.40;;;21.10;29.50;;;;;;4994907;28;20495;-42
2021/01/14 03:59:05;;;;;;;0.77;0.40;;;21.10;29.50;;;;;;4995481;28;20160;-44
2021/01/14 04:01:34;;;;;;;1.92;0.75;;;21.10;29.50;;;;;;4994508;28;20029;-44
2021/01/14 04:04:00;;;;;;;1.42;0.50;;;21.10;29.60;;;;;;4995454;28;20157;-45
2021/01/14 04:06:35;;;;;;;1.65;0.63;;;21.10;29.50;;;;;;4992948;28;20050;-44
2021/01/14 04:09:02;;;;;;;;;;;21.10;29.50;;;;;;4994001;28;20030;-45
2021/01/14 04:11:28;;;;;;;1.55;0.57;;;21.10;29.50;;;;;;4994744;28;19976;-44
2021/01/14 04:13:54;;;;;;;0.70;0.40;;;21.10;29.60;;;;;;4995685;28;20027;-43
2021/01/14 04:16:20;;;;;;;0.80;0.40;;;21.00;29.50;;;;;;4993770;28;20357;-44
2021/01/14 04:18:46;;;;;;;1.02;0.38;;;21.00;29.60;;;;;;4995531;28;20038;-43
2021/01/14 04:21:15;;;;;;;1.33;0.57;;;21.00;29.60;;;;;;4994243;28;20030;-44
2021/01/14 04:23:43;;;;;;;2.05;0.65;;;21.00;29.60;;;;;;4994937;28;20050;-44
2021/01/14 04:26:09;;;;;;;0.77;0.40;;;21.00;29.60;;;;;;4993532;28;20040;-47
2021/01/14 04:28:37;;;;;;;1.63;0.38;;;21.00;29.60;;;;;;4995342;28;20030;-42
2021/01/14 04:31:03;;;;;;;0.63;0.32;;;21.00;29.60;;;;;;4994527;28;20131;-43
2021/01/14 04:33:29;;;;;;;1.63;0.55;;;21.00;29.60;;;;;;4984545;28;20116;-44
2021/01/14 04:35:57;;;;;;;1.30;0.43;;;21.00;29.60;;;;;;4993060;28;20340;-44
2021/01/14 04:38:25;;;;;;;1.27;0.50;;;21.00;29.60;;;;;;4992897;28;20476;-44
2021/01/14 04:40:58;;;;;;;0.90;0.35;;;21.00;29.60;;;;;;4994095;28;20356;-44
2021/01/14 04:43:26;;;;;;;0.93;0.43;;;21.00;29.60;;;;;;4994882;28;20034;-43
2021/01/14 04:46:04;;;;;;;1.10;0.30;;;21.00;29.50;;;;;;4993990;28;20038;-42
2021/01/14 04:48:31;;;;;;;1.85;0.60;;;21.00;29.60;;;;;;4994903;28;20022;-44
2021/01/14 04:51:05;;;;;;;0.82;0.40;;;21.00;29.60;;;;;;4991106;28;20041;-44
2021/01/14 04:53:33;;;;;;;0.93;0.43;;;20.90;29.50;;;;;;4994362;28;20149;-45
2021/01/14 04:56:01;;;;;;;1.33;0.50;;;20.90;29.50;;;;;;5004569;28;20691;-42
2021/01/14 04:58:28;;;;;;;1.40;0.50;;;20.90;29.50;;;;;;4992393;28;20361;-44
2021/01/14 05:00:57;;;;;;;1.30;0.40;;;20.90;29.60;;;;;;4994186;28;20117;-48
2021/01/14 05:03:27;;;;;;;0.65;0.30;;;20.90;29.60;;;;;;4990625;28;20338;-45
2021/01/14 05:05:55;;;;;;;0.82;0.40;;;20.90;29.60;;;;;;4994118;28;20453;-45
2021/01/14 05:08:30;;;;;;;2.13;0.60;;;20.90;29.60;;;;;;4994442;28;20022;-44
2021/01/14 05:10:57;;;;;;;1.17;0.57;;;20.90;29.60;;;;;;4993458;28;20102;-43
2021/01/14 05:13:23;;;;;;;0.77;0.30;;;20.90;29.60;;;;;;4996250;28;20042;-49
2021/01/14 05:15:50;;;;;;;1.05;0.50;;;20.90;29.60;;;;;;4994449;28;20068;-43
2021/01/14 05:18:16;;;;;;;1.00;0.50;;;20.90;29.60;;;;;;4993612;28;20524;-44
2021/01/14 05:20:42;;;;;;;0.70;0.40;;;20.90;29.70;;;;;;4994508;28;20026;-44
2021/01/14 05:23:08;;;;;;;0.57;0.38;;;20.90;29.70;;;;;;4990943;28;20062;-43
2021/01/14 05:25:34;;;;;;;0.70;0.38;;;20.90;29.70;;;;;;4993521;28;20098;-43
2021/01/14 05:28:14;;;;;;;0.70;0.40;;;20.90;29.80;;;;;;4995862;28;20087;-43
2021/01/14 05:30:41;;;;;;;0.82;0.30;;;20.80;29.70;;;;;;4991573;28;20435;-44
2021/01/14 05:33:18;;;;;;;1.73;0.73;;;20.80;29.90;;;;;;4993915;28;20464;-43
2021/01/14 05:35:52;;;;;;;1.70;0.60;;;20.80;29.90;;;;;;4991826;28;20109;-45
2021/01/14 05:38:29;;;;;;;1.02;0.40;;;20.80;29.90;;;;;;4991479;28;20030;-45
2021/01/14 05:41:19;;;;;;;1.30;0.40;;;20.80;29.90;;;;;;4990587;28;20054;-45
2021/01/14 05:44:02;;;;;;;0.70;0.25;;;20.80;29.90;;;;;;4994220;28;20117;-46
2021/01/14 05:46:33;;;;;;;0.85;0.35;;;20.80;29.90;;;;;;4993380;28;20057;-43
2021/01/14 05:49:01;;;;;;;0.73;0.40;;;20.80;29.90;;;;;;4992443;28;20034;-46
2021/01/14 05:51:32;;;;;;;1.38;0.47;;;20.80;29.90;;;;;;4980162;28;20341;-42
2021/01/14 05:54:10;;;;;;;1.10;0.43;;;20.80;29.90;;;;;;4993123;28;20066;-46
2021/01/14 05:56:49;;;;;;;0.77;0.30;;;20.80;29.90;;;;;;4986221;28;20054;-45
2021/01/14 05:59:19;;;;;;;0.85;0.35;;;20.80;29.90;;;;;;4992924;28;20133;-50
2021/01/14 06:01:55;;;;;;;0.80;0.30;;;20.80;29.90;;;;;;4992348;28;20109;-48
2021/01/14 06:04:29;;;;;;;0.88;0.30;;;20.80;30.00;;;;;;4991610;28;20027;-47
2021/01/14 06:07:02;;;;;;;1.08;0.35;;;20.80;30.00;;;;;;4994136;28;20030;-43
2021/01/14 06:09:28;;;;;;;0.65;0.30;;;20.70;30.00;;;;;;4992885;28;20038;-47
2021/01/14 06:12:08;;;;;;;0.90;0.45;;;20.70;30.00;;;;;;4990175;28;20027;-46
2021/01/14 06:14:34;;;;;;;2.20;0.40;;;20.70;30.00;;;;;;4992864;28;20038;-44
2021/01/14 06:17:02;;;;;;;1.42;0.50;;;20.70;30.00;;;;;;4993493;28;20049;-43
2021/01/14 06:19:29;;;;;;;1.75;0.40;;;20.70;30.00;;;;;;4989998;28;20026;-45
2021/01/14 06:21:57;;;;;;;1.88;0.40;;;20.70;30.00;;;;;;4982108;28;20034;-43
2021/01/14 06:24:27;;;;;;;1.10;0.50;;;20.70;30.00;;;;;;4992438;28;20054;-44
2021/01/14 06:26:58;;;;;;;1.23;0.50;;;20.70;30.00;;;;;;4993283;28;20109;-46
2021/01/14 06:29:28;;;;;;;1.27;0.50;;;20.70;30.00;;;;;;4992243;28;20044;-44
2021/01/14 06:32:10;;;;;;;0.98;0.20;;;20.70;30.00;;;;;;4992781;28;20042;-47
2021/01/14 06:34:38;;;;;;;0.68;0.30;;;20.70;30.00;;;;;;4989746;28;20038;-44
2021/01/14 06:37:15;;;;;;;1.50;0.30;;;20.70;30.00;;;;;;4990965;28;20030;-45
2021/01/14 06:39:50;;;;;;;0.45;0.25;;;20.70;30.00;;;;;;4992494;28;20397;-45
2021/01/14 06:42:24;;;;;;;1.30;0.30;;;20.70;30.00;;;;;;4991964;28;20074;-47
2021/01/14 06:44:51;;;;;;;1.38;0.40;;;20.60;30.00;;;;;;4996176;28;20137;-44
2021/01/14 06:47:29;;;;;;;0.50;0.25;;;20.60;30.00;;;;;;4991958;28;20465;-46
2021/01/14 06:50:18;;;;;;;0.82;0.30;;;20.70;30.00;;;;;;4992590;28;20034;-47
2021/01/14 06:52:47;;;;;;;1.10;0.50;;;20.60;30.00;;;;;;4995468;28;20034;-46
2021/01/14 06:55:23;;;;;;;1.10;0.40;;;20.60;30.60;;;;;;4993440;28;20121;-45
2021/01/14 06:58:08;;;;;;;0.75;0.30;;;20.60;30.00;;;;;;4991515;28;20038;-49
2021/01/14 07:00:39;;;;;;;1.17;0.40;;;20.60;30.00;;;;;;4992997;28;20022;-47
2021/01/14 07:03:21;;;;;;;1.10;0.20;;;20.60;30.00;;;;;;4994180;28;20450;-47
2021/01/14 07:05:53;;;;;;;1.40;0.60;;;20.60;30.00;;;;;;4993441;28;20045;-43
2021/01/14 07:08:34;;;;;;;0.38;0.28;;;20.60;30.00;;;;;;4991683;28;20042;-44
2021/01/14 07:11:19;;;;;;;1.58;0.40;;;20.60;30.10;;;;;;4977706;28;20034;-43
2021/01/14 07:13:46;;;;;;;0.98;0.30;;;20.60;30.00;;;;;;4991689;28;20039;-43
2021/01/14 07:16:17;;;;;;;0.85;0.25;;;20.60;30.10;;;;;;4992260;28;20158;-43
2021/01/14 07:18:46;;;;;;;2.22;0.55;;;20.60;30.10;;;;;;4994289;28;20349;-44
2021/01/14 07:21:34;;;;;;;0.75;0.38;;;20.60;30.10;;;;;;4994041;28;20069;-45
2021/01/14 07:24:09;;;;;;;1.25;0.40;;;20.60;30.10;;;;;;4983663;28;20054;-42
2021/01/14 07:26:39;;;;;;;0.98;0.30;;;20.60;30.10;;;;;;4997334;28;20192;-44
2021/01/14 07:29:05;;;;;;;1.05;0.40;;;20.60;30.10;;;;;;4997159;28;20026;-44
2021/01/14 07:31:31;;;;;;;0.95;0.30;;;20.50;30.10;;;;;;4997553;28;20041;-44
2021/01/14 07:34:17;;;;;;;0.52;0.32;;;20.50;30.10;;;;;;4991090;28;20500;-44
2021/01/14 07:36:43;;;;;;;0.50;0.35;;;20.50;30.10;;;;;;4997278;28;20034;-45
2021/01/14 07:39:08;;;;;;;0.88;0.40;;;20.50;30.10;;;;;;4996183;28;20041;-43
2021/01/14 07:41:58;;;;;;;2.45;0.50;;;20.50;30.10;;;;;;4996926;28;20034;-42
2021/01/14 07:44:24;;;;;;;0.98;0.30;;;20.50;30.00;;;;;;4991717;28;20038;-44
2021/01/14 07:46:50;;;;;;;2.90;0.50;;;20.50;30.00;;;;;;4996340;28;20035;-44
2021/01/14 07:49:29;;;;;;;1.17;0.40;;;20.50;30.00;;;;;;4996656;28;20030;-43
2021/01/14 07:51:55;;;;;;;2.80;0.50;;;20.50;30.00;;;;;;4978156;28;20038;-44
2021/01/14 07:54:21;;;;;;;1.13;0.47;;;20.50;30.00;;;;;;4980231;28;20046;-47
2021/01/14 07:56:52;;;;;;;0.55;0.30;;;20.50;30.10;;;;;;4996222;28;20034;-43
2021/01/14 07:59:28;;;;;;;1.33;0.50;;;20.50;30.00;;;;;;4996593;28;20354;-44
2021/01/14 08:02:08;;;;;;;0.80;0.47;;;20.50;30.00;;;;;;4977996;28;20109;-46
2021/01/14 08:04:52;;;;;;;1.35;0.47;;;20.50;30.00;;;;;;4980637;28;20041;-43
2021/01/14 08:07:23;;;;;;;1.15;0.38;;;20.50;30.00;;;;;;4997268;28;20042;-45
2021/01/14 08:09:51;;;;;;;1.67;0.50;;;20.50;30.10;;;;;;4995412;28;20125;-42
2021/01/14 08:12:19;;;;;;;0.43;0.30;;;20.40;30.10;;;;;;4988801;28;20034;-43
2021/01/14 08:14:45;;;;;;;0.90;0.40;;;20.40;30.10;;;;;;4995667;28;20050;-44
2021/01/14 08:17:26;;;;;;;0.40;0.20;;;20.40;30.10;;;;;;4996475;28;20026;-44
2021/01/14 08:19:53;;;;;;;1.10;0.43;;;20.40;30.80;;;;;;4996905;28;20033;-45
2021/01/14 08:22:19;;;;;;;1.17;0.40;;;20.40;30.30;;;;;;4999581;28;20084;-54
2021/01/14 08:24:48;;;;;;;1.00;0.35;;;20.40;30.40;;;;;;4997382;28;20137;-48
2021/01/14 08:27:25;;;;;;;2.25;0.40;;;20.40;30.80;;;;;;5014752;28;20358;-49
2021/01/14 08:30:14;;;;;;;1.33;0.38;;;20.40;31.20;;;;;;4983863;28;20022;-48
2021/01/14 08:32:46;;;;;;;1.63;1.05;;;20.50;31.60;;;;;;4990473;28;20057;-46
2021/01/14 08:35:15;;;;;;;0.73;0.30;;;20.50;31.90;;;;;;4976804;28;20094;-47
2021/01/14 08:37:57;;;;;;;1.17;0.30;;;20.60;32.00;;;;;;4997452;28;20026;-49
2021/01/14 08:40:23;;;;;;;1.25;0.40;;;20.60;31.90;;;;;;4992755;28;20448;-45
2021/01/14 08:43:00;;;;;;;1.02;0.50;;;20.70;31.80;;;;;;4996400;28;20100;-49
2021/01/14 08:45:33;;;;;;;0.68;0.35;;;20.80;31.70;;;;;;4985013;28;20073;-51
2021/01/14 08:47:59;;;;;;;0.93;0.30;;;20.80;31.60;;;;;;4991015;28;20030;-46
2021/01/14 08:50:42;;;;;;;1.17;0.30;;;20.90;31.50;;;;;;4991148;28;20069;-47
2021/01/14 08:53:29;;;;;;;1.27;0.43;;;21.10;31.50;;;;;;4993440;28;20418;-49
2021/01/14 08:56:07;;;;;;;1.05;0.47;;;21.20;31.40;;;;;;4996763;28;20027;-52
2021/01/14 08:58:43;;;;;;;1.33;0.40;;;21.20;31.30;;;;;;4958743;28;20053;-47
2021/01/14 09:01:25;;;;;;;1.48;0.30;;;21.30;31.20;;;;;;4995964;28;20041;-46
2021/01/14 09:03:54;;;;;;;2.45;0.45;;;21.40;31.10;;;;;;4987982;28;20109;-44
2021/01/14 09:06:38;;;;;;;1.08;0.40;;;21.50;31.10;;;;;;4993941;28;20049;-46
2021/01/14 09:09:05;;;;;;;1.42;0.40;;;21.60;31.10;;;;;;4994006;28;20034;-47
2021/01/14 09:11:32;;;;;;;0.65;0.30;;;21.70;31.00;;;;;;4994857;28;20030;-44
2021/01/14 09:14:04;;;;;;;1.17;0.47;;;21.80;30.90;;;;;;4994030;28;20042;-48
2021/01/14 09:16:30;;;;;;;0.70;0.30;;;21.90;30.90;;;;;;4991748;28;20034;-46
2021/01/14 09:18:55;;;;;;;0.82;0.40;;;22.00;30.70;;;;;;4995003;28;20026;-46
2021/01/14 09:21:22;;;;;;;1.20;0.30;;;22.00;30.50;;;;;;4993337;28;20037;-45
2021/01/14 09:23:47;;;;;;;1.13;0.60;;;22.10;30.40;;;;;;4992533;28;20039;-44
2021/01/14 09:26:20;;;;;;;1.48;0.22;;;22.20;30.30;;;;;;4984387;28;20476;-45
2021/01/14 09:28:53;;;;;;;2.03;0.40;;;22.30;30.10;;;;;;4992590;28;20129;-46
2021/01/14 09:31:20;;;;;;;1.67;0.53;;;22.40;30.00;;;;;;4993821;28;20034;-46
2021/01/14 09:33:48;;;;;;;2.90;0.70;;;22.40;29.90;;;;;;4978937;28;20046;-43
2021/01/14 09:36:23;;;;;;;1.17;0.40;;;22.50;29.80;;;;;;4997521;28;20130;-44
2021/01/14 09:38:51;;;;;;;1.60;0.57;;;22.60;29.70;;;;;;4998625;28;20469;-43
2021/01/14 09:41:26;;;;;;;1.92;0.52;;;22.70;29.60;;;;;;5001354;28;20035;-42
2021/01/14 09:44:03;;;;;;;2.00;0.60;;;22.70;29.50;;;;;;4999922;28;20105;-46
2021/01/14 09:46:37;;;;;;;1.00;0.40;;;22.80;29.50;;;;;;4991962;28;20110;-43
2021/01/14 09:49:11;;;;;;;3.92;0.40;;;22.80;29.40;;;;;;4993254;28;20433;-43
2021/01/14 09:51:40;;;;;;;0.60;0.30;;;22.90;29.40;;;;;;4993216;28;20041;-45
2021/01/14 09:54:08;;;;;;;1.15;0.50;;;22.90;29.40;;;;;;4993037;28;20038;-44
2021/01/14 09:56:41;;;;;;;1.38;0.40;;;23.00;29.40;;;;;;4993129;28;20062;-41
2021/01/14 09:59:18;;;;;;;0.95;0.47;;;23.00;29.30;;;;;;4995278;28;20362;-44
2021/01/14 10:01:50;;;;;;;1.15;0.40;;;23.10;29.30;;;;;;4975996;28;20034;-44
2021/01/14 10:04:25;;;;;;;0.70;0.40;;;23.10;29.20;;;;;;4985767;28;20030;-47
2021/01/14 10:06:54;;;;;;;;;;;23.10;29.10;;;;;;4993787;28;20038;-48
2021/01/14 10:09:21;;;;;;;1.38;0.50;;;23.10;29.10;;;;;;4982358;28;19933;-42
2021/01/14 10:11:47;;;;;;;1.20;0.50;;;23.10;29.00;;;;;;4976450;28;20554;-46
2021/01/14 10:14:18;;;;;;;1.17;0.50;;;23.10;28.90;;;;;;4995061;28;20077;-46
2021/01/14 10:16:44;;;;;;;1.60;0.57;;;23.10;28.80;;;;;;4994192;28;20093;-45
2021/01/14 10:19:16;;;;;;;1.33;0.43;;;23.20;28.80;;;;;;4984459;28;20030;-45
2021/01/14 10:21:42;;;;;;;1.05;0.40;;;23.20;28.70;;;;;;4990502;28;20137;-43
2021/01/14 10:24:25;;;;;;;1.52;0.57;;;23.20;28.60;;;;;;4993118;28;20053;-45
2021/01/14 10:26:52;;;;;;;1.55;0.60;;;23.20;28.60;;;;;;4994917;28;20353;-44
2021/01/14 10:29:40;;;;;;;1.63;0.60;;;23.20;28.50;;;;;;4976986;28;20039;-44
2021/01/14 10:32:10;;;;;;;1.40;0.40;;;23.20;28.40;;;;;;4975629;28;20470;-47
2021/01/14 10:34:53;;;;;;;1.25;0.50;;;23.20;28.40;;;;;;4984291;28;20437;-45
2021/01/14 10:37:21;;;;;;;1.08;0.50;;;23.20;28.30;;;;;;4994210;28;20041;-43
2021/01/14 10:39:48;;;;;;;0.85;0.47;;;23.20;28.30;;;;;;4994897;28;20026;-46
2021/01/14 10:42:36;;;;;;;1.73;0.60;;;23.20;28.20;;;;;;4994871;28;20034;-47
2021/01/14 10:45:08;;;;;;;2.33;0.60;;;23.20;28.20;;;;;;4975465;28;20350;-45
2021/01/14 10:47:35;;;;;;;0.77;0.40;;;23.20;28.10;;;;;;4976059;28;20137;-45
2021/01/14 10:50:17;;;;;;;1.42;0.50;;;23.20;28.10;;;;;;4988552;28;20026;-44
2021/01/14 10:53:03;;;;;;;1.65;0.70;;;23.20;28.10;;;;;;4992273;28;20481;-45
2021/01/14 10:55:32;;;;;;;0.77;0.40;;;23.20;28.10;;;;;;4992704;28;20106;-47
2021/01/14 10:58:00;;;;;;;0.60;0.43;;;23.20;28.10;;;;;;4993942;28;20042;-44
2021/01/14 11:00:28;;;;;;;0.82;0.55;;;23.20;28.00;;;;;;4987948;28;20049;-44
2021/01/14 11:03:12;;;;;;;1.08;0.50;;;23.20;28.00;;;;;;4984219;28;20046;-47
2021/01/14 11:05:45;;;;;;;1.45;0.50;;;23.20;28.00;;;;;;4984900;28;20058;-48
2021/01/14 11:08:23;;;;;;;1.80;0.50;;;23.20;28.00;;;;;;4996730;28;20033;-48
2021/01/14 11:11:08;;;;;;;0.50;0.50;;;23.10;28.00;;;;;;4984507;28;20050;-44
2021/01/14 11:13:47;;;;;;;1.63;0.55;;;23.20;28.10;;;;;;4980891;28;20132;-46
2021/01/14 11:16:15;;;;;;;1.65;0.70;;;23.10;28.20;;;;;;4997111;28;20468;-49
2021/01/14 11:18:43;;;;;;;1.20;0.57;;;23.10;28.30;;;;;;4997221;28;20314;-45
2021/01/14 11:21:10;;;;;;;1.45;0.80;;;23.10;28.40;;;;;;5009915;28;20101;-46
2021/01/14 11:23:37;;;;;;;1.33;0.70;;;23.10;28.50;;;;;;5008950;28;20046;-44
2021/01/14 11:26:06;;;;;;;2.40;0.52;;;23.10;28.60;;;;;;5008080;28;20026;-45
2021/01/14 11:28:42;;;;;;;1.55;0.68;;;23.10;28.60;;;;;;5006194;28;20368;-48
2021/01/14 11:31:20;;;;;;;1.20;0.60;;;23.10;28.70;;;;;;5004224;28;20041;-45
2021/01/14 11:33:49;;;;;;;1.08;0.50;;;23.10;28.70;;;;;;5007246;28;20057;-44
2021/01/14 11:36:20;;;;;;;0.85;0.60;;;23.10;28.70;;;;;;5011748;28;20018;-45
2021/01/14 11:38:48;;;;;;;0.70;0.40;;;23.10;28.80;;;;;;5006996;28;20038;-44
2021/01/14 11:41:22;;;;;;;7.88;0.80;;;23.10;28.80;;;;;;4999803;28;20324;-47
2021/01/14 11:43:48;;;;;;;1.27;0.70;;;23.10;28.80;;;;;;4997350;28;20035;-45
2021/01/14 11:46:14;;;;;;;1.80;0.63;;;23.10;28.80;;;;;;4986362;28;20473;-55
2021/01/14 11:48:40;;;;;;;1.42;0.50;;;23.10;28.80;;;;;;4985887;28;20335;-46
2021/01/14 11:51:06;;;;;;;0.75;0.40;;;23.10;28.80;;;;;;4994886;28;20036;-44
2021/01/14 11:53:32;;;;;;;1.52;0.63;;;23.10;28.80;;;;;;5016564;28;20510;-47
2021/01/14 11:55:58;;;;;;;0.57;0.40;;;23.10;28.80;;;;;;5013505;28;20052;-45
2021/01/14 11:58:24;;;;;;;1.05;0.40;;;23.10;28.80;;;;;;5016924;28;20433;-43
2021/01/14 12:00:49;;;;;;;0.80;0.40;;;23.10;28.90;;;;;;4995683;28;20046;-49
2021/01/14 12:03:15;;;;;;;1.08;0.50;;;23.10;28.90;;;;;;4997457;28;20034;-46
2021/01/14 12:05:41;;;;;;;1.27;0.50;;;23.10;29.00;;;;;;4999611;28;20026;-47
2021/01/14 12:08:07;;;;;;;1.23;0.50;;;23.10;29.00;;;;;;4996251;28;20345;-49
2021/01/14 12:10:32;;;;;;;1.52;0.60;;;23.10;29.50;;;;;;4998534;28;20469;-45
2021/01/14 12:12:58;;;;;;;1.05;0.47;;;23.10;29.00;;;;;;5014647;28;20100;-44
2021/01/14 12:15:24;;;;;;;0.80;0.40;;;23.10;29.00;;;;;;4996584;28;20038;-47
2021/01/14 12:17:50;;;;;;;0.57;0.40;;;23.10;29.00;;;;;;4993339;28;20057;-46
2021/01/14 12:20:16;;;;;;;0.75;0.50;;;23.10;29.00;;;;;;5003053;28;20019;-46
2021/01/14 12:22:42;;;;;;;0.75;0.50;;;23.10;29.00;;;;;;4992836;28;20117;-45
2021/01/14 12:25:11;;;;;;;2.17;0.50;;;23.10;29.00;;;;;;4983568;28;20019;-44
2021/01/14 12:27:41;;;;;;;1.10;0.60;;;23.10;29.50;;;;;;4996029;28;20061;-43
2021/01/14 12:30:08;;;;;;;0.93;0.50;;;23.10;29.00;;;;;;4987184;28;20069;-45
2021/01/14 12:32:34;;;;;;;1.17;0.57;;;23.10;29.00;;;;;;4988246;28;20464;-47
2021/01/14 12:35:01;;;;;;;1.65;0.50;;;23.00;29.00;;;;;;4992736;28;20066;-46
2021/01/14 12:37:38;;;;;;;1.25;0.50;;;23.00;29.00;;;;;;4987801;28;20128;-52
2021/01/14 12:40:06;;;;;;;1.17;0.63;;;23.10;29.20;;;;;;4994998;28;20034;-52
2021/01/14 12:42:32;;;;;;;2.58;0.65;;;23.00;29.20;;;;;;4990015;28;20031;-49
2021/01/14 12:44:58;;;;;;;0.73;0.52;;;23.10;29.30;;;;;;4994142;28;20048;-52
2021/01/14 12:47:24;;;;;;;2.25;0.50;;;23.10;29.50;;;;;;4991839;28;20041;-50
2021/01/14 12:49:50;;;;;;;1.63;0.50;;;23.10;29.60;;;;;;4995658;28;20433;-57
2021/01/14 12:52:15;;;;;;;1.38;0.50;;;23.10;29.70;;;;;;4998280;28;20037;-55
2021/01/14 12:54:41;;;;;;;1.10;0.63;;;23.10;29.80;;;;;;4995853;28;20046;-56
2021/01/14 12:57:07;;;;;;;0.70;0.50;;;23.10;29.80;;;;;;5003498;28;20030;-49
2021/01/14 12:59:33;;;;;;;0.73;0.50;;;23.20;29.70;;;;;;4995938;28;20120;-51
2021/01/14 13:02:02;;;;;;;0.80;0.50;;;23.20;29.70;;;;;;4992053;28;20034;-48
2021/01/14 13:04:28;;;;;;;1.05;0.40;;;23.20;29.70;;;;;;4992937;28;20042;-46